createdAt,value
2022-10-26T00:01:29.360Z,1
2022-10-26T00:03:13.041Z,0
2022-10-26T00:04:56.721Z,0
2022-10-26T00:06:40.426Z,0
2022-10-26T00:08:24.099Z,0
2022-10-26T00:10:07.802Z,1
2022-10-26T00:11:51.608Z,1
2022-10-26T00:13:35.250Z,0
2022-10-26T00:15:18.936Z,1
2022-10-26T00:17:02.613Z,0
2022-10-26T00:18:46.318Z,0
2022-10-26T00:20:30.027Z,0
2022-10-26T00:22:13.786Z,0
2022-10-26T00:23:57.463Z,1
2022-10-26T00:25:41.137Z,0
2022-10-26T00:27:24.823Z,0
2022-10-26T00:29:08.544Z,0
2022-10-26T00:30:52.231Z,1
2022-10-26T00:32:35.975Z,0
2022-10-26T00:34:19.656Z,1
2022-10-26T00:36:03.370Z,0
2022-10-26T00:37:47.058Z,1
2022-10-26T00:39:30.749Z,0
2022-10-26T00:41:14.499Z,0
2022-10-26T00:42:58.181Z,0
2022-10-26T00:44:41.861Z,0
2022-10-26T00:46:25.561Z,0
2022-10-26T00:48:09.262Z,0
2022-10-26T00:49:53.022Z,0
2022-10-26T00:51:36.702Z,0
2022-10-26T00:53:20.397Z,0
2022-10-26T00:55:04.080Z,0
2022-10-26T00:56:47.771Z,0
2022-10-26T00:58:31.481Z,0
2022-10-26T01:00:15.237Z,0
2022-10-26T01:01:58.909Z,0
2022-10-26T01:03:42.607Z,1
2022-10-26T01:05:26.302Z,0
2022-10-26T01:07:10.067Z,0
2022-10-26T01:08:53.753Z,1
2022-10-26T01:10:37.434Z,0
2022-10-26T01:12:21.110Z,0
2022-10-26T01:14:04.811Z,0
2022-10-26T01:15:48.525Z,0
2022-10-26T01:17:32.281Z,0
2022-10-26T01:19:15.969Z,0
2022-10-26T01:20:59.640Z,0
2022-10-26T01:22:43.319Z,0
2022-10-26T01:24:27.074Z,0
2022-10-26T01:26:10.715Z,0
2022-10-26T01:27:54.423Z,0
2022-10-26T01:29:38.164Z,1
2022-10-26T01:31:21.855Z,0
2022-10-26T01:33:05.552Z,0
2022-10-26T01:34:49.227Z,0
2022-10-26T01:36:32.935Z,0
2022-10-26T01:38:16.688Z,0
2022-10-26T01:40:00.410Z,0
2022-10-26T01:41:44.049Z,0
2022-10-26T01:43:27.747Z,0
2022-10-26T01:45:11.434Z,0
2022-10-26T01:46:55.132Z,0
2022-10-26T01:48:38.890Z,0
2022-10-26T01:50:22.570Z,0
2022-10-26T01:52:06.254Z,0
2022-10-26T01:53:49.945Z,0
2022-10-26T01:55:33.639Z,0
2022-10-26T01:57:17.354Z,0
2022-10-26T01:59:01.122Z,0
2022-10-26T02:00:44.780Z,0
2022-10-26T02:02:28.490Z,0
2022-10-26T02:04:12.149Z,0
2022-10-26T02:05:55.861Z,0
2022-10-26T02:07:39.619Z,0
2022-10-26T02:09:23.300Z,0
2022-10-26T02:11:06.981Z,1
2022-10-26T02:12:50.663Z,0
2022-10-26T02:14:34.390Z,0
2022-10-26T02:16:18.055Z,0
2022-10-26T02:18:01.858Z,0
2022-10-26T02:19:45.510Z,0
2022-10-26T02:21:29.187Z,0
2022-10-26T02:23:12.888Z,0
2022-10-26T02:24:56.594Z,0
2022-10-26T02:26:40.267Z,0
2022-10-26T02:28:24.026Z,0
2022-10-26T02:30:07.715Z,1
2022-10-26T02:31:51.394Z,0
2022-10-26T02:33:35.075Z,0
2022-10-26T02:35:18.785Z,0
2022-10-26T02:37:02.480Z,0
2022-10-26T02:38:46.233Z,0
2022-10-26T02:40:29.916Z,0
2022-10-26T02:42:13.600Z,0
2022-10-26T02:43:57.297Z,1
2022-10-26T02:45:41.010Z,0
2022-10-26T02:47:24.758Z,1
2022-10-26T02:49:08.439Z,0
2022-10-26T02:50:52.117Z,0
2022-10-26T02:52:35.814Z,0
2022-10-26T02:54:19.531Z,0
2022-10-26T02:56:03.287Z,0
2022-10-26T02:57:46.960Z,0
2022-10-26T02:59:30.650Z,0
2022-10-26T03:01:14.323Z,0
2022-10-26T03:02:58.030Z,0
2022-10-26T03:04:41.731Z,0
2022-10-26T03:06:25.485Z,0
2022-10-26T03:08:09.167Z,0
2022-10-26T03:09:52.849Z,0
2022-10-26T03:11:36.528Z,0
2022-10-26T03:13:20.239Z,0
2022-10-26T03:15:03.935Z,0
2022-10-26T03:16:47.620Z,0
2022-10-26T03:18:31.373Z,0
2022-10-26T03:20:15.059Z,0
2022-10-26T03:21:58.729Z,0
2022-10-26T03:23:42.438Z,0
2022-10-26T03:25:26.149Z,0
2022-10-26T03:27:09.904Z,0
2022-10-26T03:28:53.584Z,0
2022-10-26T03:30:37.290Z,0
2022-10-26T03:32:21.008Z,0
2022-10-26T03:34:04.654Z,0
2022-10-26T03:35:48.340Z,0
2022-10-26T03:37:32.049Z,0
2022-10-26T03:39:15.808Z,0
2022-10-26T03:40:59.510Z,0
2022-10-26T03:42:43.149Z,0
2022-10-26T03:44:26.840Z,0
2022-10-26T03:46:10.544Z,0
2022-10-26T03:47:54.309Z,0
2022-10-26T03:49:37.990Z,0
2022-10-26T03:51:21.673Z,0
2022-10-26T03:53:05.411Z,1
2022-10-26T03:54:49.058Z,0
2022-10-26T03:56:32.747Z,0
2022-10-26T03:58:16.449Z,0
2022-10-26T04:00:00.219Z,0
2022-10-26T04:01:43.885Z,0
2022-10-26T04:03:27.559Z,0
2022-10-26T04:05:11.256Z,0
2022-10-26T04:06:54.964Z,0
2022-10-26T04:08:38.716Z,0
2022-10-26T04:10:22.398Z,0
2022-10-26T04:12:06.075Z,0
2022-10-26T04:13:49.775Z,0
2022-10-26T04:15:33.467Z,0
2022-10-26T04:17:17.160Z,0
2022-10-26T04:19:00.968Z,0
2022-10-26T04:20:44.635Z,0
2022-10-26T04:22:28.284Z,0
2022-10-26T04:24:11.968Z,0
2022-10-26T04:25:55.754Z,0
2022-10-26T04:27:39.381Z,0
2022-10-26T04:29:23.135Z,0
2022-10-26T04:31:06.817Z,0
2022-10-26T04:32:50.503Z,0
2022-10-26T04:34:34.206Z,0
2022-10-26T04:36:17.886Z,0
2022-10-26T04:38:01.652Z,0
2022-10-26T04:39:45.334Z,0
2022-10-26T04:41:29.055Z,0
2022-10-26T04:43:12.768Z,0
2022-10-26T04:44:56.461Z,0
2022-10-26T04:46:40.248Z,0
2022-10-26T04:48:23.859Z,0
2022-10-26T04:50:07.554Z,0
2022-10-26T04:51:51.234Z,0
2022-10-26T04:53:34.972Z,0
2022-10-26T04:55:18.645Z,0
2022-10-26T04:57:02.431Z,0
2022-10-26T04:58:46.066Z,0
2022-10-26T05:00:29.742Z,0
2022-10-26T05:02:13.429Z,0
2022-10-26T05:03:57.139Z,0
2022-10-26T05:05:40.860Z,0
2022-10-26T05:07:25.425Z,0
2022-10-26T05:09:08.293Z,0
2022-10-26T05:10:51.954Z,0
2022-10-26T05:12:35.643Z,0
2022-10-26T05:14:19.333Z,0
2022-10-26T05:16:03.068Z,0
2022-10-26T05:17:46.790Z,0
2022-10-26T05:19:30.472Z,1
2022-10-26T05:21:14.226Z,0
2022-10-26T05:22:57.842Z,0
2022-10-26T05:24:41.550Z,0
2022-10-26T05:26:25.313Z,0
2022-10-26T05:28:08.991Z,0
2022-10-26T05:29:52.674Z,1
2022-10-26T05:31:36.432Z,0
2022-10-26T05:33:20.075Z,0
2022-10-26T05:35:03.839Z,0
2022-10-26T05:36:47.547Z,0
2022-10-26T05:38:31.200Z,0
2022-10-26T05:40:14.924Z,0
2022-10-26T05:41:58.604Z,0
2022-10-26T05:43:42.284Z,0
2022-10-26T05:45:26.057Z,0
2022-10-26T05:47:09.725Z,0
2022-10-26T05:48:53.404Z,0
2022-10-26T05:50:37.131Z,0
2022-10-26T05:52:20.784Z,0
2022-10-26T05:54:04.481Z,1
2022-10-26T05:55:48.245Z,0
2022-10-26T05:57:31.931Z,0
2022-10-26T05:59:15.644Z,1
2022-10-26T06:00:59.306Z,1
2022-10-26T06:02:43.018Z,0
2022-10-26T06:04:26.789Z,1
2022-10-26T06:06:10.458Z,2
2022-10-26T06:07:54.140Z,3
2022-10-26T06:09:37.822Z,3
2022-10-26T06:11:21.508Z,3
2022-10-26T06:13:05.200Z,2
2022-10-26T06:14:49.001Z,3
2022-10-26T06:16:32.659Z,3
2022-10-26T06:18:16.351Z,3
2022-10-26T06:20:00.067Z,4
2022-10-26T06:21:43.718Z,5
2022-10-26T06:23:27.438Z,6
2022-10-26T06:25:11.206Z,7
2022-10-26T06:26:54.873Z,6
2022-10-26T06:28:38.543Z,6
2022-10-26T06:30:22.263Z,5
2022-10-26T06:32:05.943Z,4
2022-10-26T06:33:49.708Z,5
2022-10-26T06:35:33.434Z,4
2022-10-26T06:37:17.084Z,4
2022-10-26T06:39:00.759Z,4
2022-10-26T06:40:44.462Z,4
2022-10-26T06:42:28.164Z,4
2022-10-26T06:44:11.912Z,5
2022-10-26T06:45:55.594Z,4
2022-10-26T06:47:39.285Z,6
2022-10-26T06:49:22.969Z,5
2022-10-26T06:51:06.681Z,6
2022-10-26T06:52:50.432Z,6
2022-10-26T06:54:34.116Z,6
2022-10-26T06:56:17.838Z,8
2022-10-26T06:58:01.494Z,8
2022-10-26T06:59:45.199Z,8
2022-10-26T07:01:28.915Z,7
2022-10-26T07:03:12.643Z,8
2022-10-26T07:04:56.370Z,7
2022-10-26T07:06:40.002Z,8
2022-10-26T07:08:23.696Z,8
2022-10-26T07:10:07.437Z,8
2022-10-26T07:11:51.095Z,202
2022-10-26T07:13:34.908Z,230
2022-10-26T07:15:18.528Z,241
2022-10-26T07:17:02.207Z,244
2022-10-26T07:18:45.907Z,245
2022-10-26T07:20:29.618Z,271
2022-10-26T07:22:13.389Z,271
2022-10-26T07:23:57.050Z,258
2022-10-26T07:25:40.729Z,234
2022-10-26T07:27:24.414Z,238
2022-10-26T07:29:08.144Z,250
2022-10-26T07:30:51.822Z,248
2022-10-26T07:32:35.605Z,238
2022-10-26T07:34:19.254Z,244
2022-10-26T07:36:02.951Z,236
2022-10-26T07:37:46.653Z,229
2022-10-26T07:39:30.329Z,236
2022-10-26T07:41:14.021Z,243
2022-10-26T07:42:57.784Z,259
2022-10-26T07:44:41.473Z,292
2022-10-26T07:46:25.140Z,297
2022-10-26T07:48:08.842Z,265
2022-10-26T07:49:52.536Z,245
2022-10-26T07:51:36.302Z,223
2022-10-26T07:53:19.981Z,202
2022-10-26T07:55:03.674Z,200
2022-10-26T07:56:47.349Z,205
2022-10-26T07:58:31.052Z,255
2022-10-26T08:00:14.777Z,251
2022-10-26T08:01:58.504Z,318
2022-10-26T08:03:42.189Z,435
2022-10-26T08:05:25.878Z,522
2022-10-26T08:07:09.577Z,482
2022-10-26T08:08:53.266Z,475
2022-10-26T08:10:36.962Z,413
2022-10-26T08:12:20.714Z,353
2022-10-26T08:14:04.448Z,321
2022-10-26T08:15:48.070Z,354
2022-10-26T08:17:31.759Z,344
2022-10-26T08:19:15.519Z,427
2022-10-26T08:20:59.236Z,509
2022-10-26T08:22:42.917Z,769
2022-10-26T08:24:26.599Z,775
2022-10-26T08:26:10.277Z,775
2022-10-26T08:27:53.987Z,775
2022-10-26T08:29:37.677Z,776
2022-10-26T08:31:21.377Z,776
2022-10-26T08:33:05.220Z,776
2022-10-26T08:34:48.808Z,776
2022-10-26T08:36:32.491Z,776
2022-10-26T08:38:16.252Z,776
2022-10-26T08:39:59.973Z,776
2022-10-26T08:41:43.699Z,776
2022-10-26T08:43:27.395Z,773
2022-10-26T08:45:11.087Z,776
2022-10-26T08:46:54.723Z,776
2022-10-26T08:48:38.405Z,776
2022-10-26T08:50:22.168Z,774
2022-10-26T08:52:05.847Z,776
2022-10-26T08:53:49.550Z,776
2022-10-26T08:55:33.222Z,775
2022-10-26T08:57:16.926Z,776
2022-10-26T08:59:00.645Z,775
2022-10-26T09:00:44.313Z,776
2022-10-26T09:02:28.056Z,776
2022-10-26T09:04:11.736Z,776
2022-10-26T09:05:55.415Z,776
2022-10-26T09:07:39.119Z,776
2022-10-26T09:09:22.827Z,776
2022-10-26T09:11:06.600Z,775
2022-10-26T09:12:50.328Z,776
2022-10-26T09:14:33.935Z,776
2022-10-26T09:16:17.624Z,776
2022-10-26T09:18:01.323Z,776
2022-10-26T09:19:45.036Z,776
2022-10-26T09:21:28.828Z,776
2022-10-26T09:23:12.512Z,775
2022-10-26T09:24:56.153Z,776
2022-10-26T09:26:39.883Z,776
2022-10-26T09:28:23.543Z,777
2022-10-26T09:30:07.240Z,777
2022-10-26T09:31:50.988Z,775
2022-10-26T09:33:34.726Z,776
2022-10-26T09:35:18.402Z,776
2022-10-26T09:37:02.046Z,776
2022-10-26T09:38:46.121Z,776
2022-10-26T09:40:29.521Z,776
2022-10-26T09:42:13.209Z,777
2022-10-26T09:43:56.877Z,776
2022-10-26T09:45:40.565Z,777
2022-10-26T09:47:24.262Z,775
2022-10-26T09:49:07.971Z,777
2022-10-26T09:50:51.716Z,777
2022-10-26T09:52:35.399Z,777
2022-10-26T09:54:19.084Z,774
2022-10-26T09:56:02.771Z,777
2022-10-26T09:57:46.476Z,777
2022-10-26T09:59:30.241Z,777
2022-10-26T10:01:13.929Z,777
2022-10-26T10:02:57.606Z,777
2022-10-26T10:04:41.285Z,777
2022-10-26T10:06:24.996Z,776
2022-10-26T10:08:08.715Z,776
2022-10-26T10:09:52.400Z,777
2022-10-26T10:11:36.138Z,777
2022-10-26T10:13:19.810Z,777
2022-10-26T10:15:03.488Z,777
2022-10-26T10:16:47.179Z,776
2022-10-26T10:18:30.905Z,776
2022-10-26T10:20:14.654Z,777
2022-10-26T10:21:58.332Z,777
2022-10-26T10:23:42.024Z,777
2022-10-26T10:25:25.699Z,777
2022-10-26T10:27:09.396Z,776
2022-10-26T10:28:53.175Z,776
2022-10-26T10:30:36.859Z,777
2022-10-26T10:32:20.541Z,777
2022-10-26T10:34:04.220Z,777
2022-10-26T10:35:47.920Z,776
2022-10-26T10:37:31.603Z,776
2022-10-26T10:40:58.996Z,777
2022-10-26T10:42:42.746Z,777
2022-10-26T10:44:26.432Z,778
2022-10-26T10:46:10.109Z,777
2022-10-26T10:47:53.806Z,777
2022-10-26T10:49:37.520Z,777
2022-10-26T10:51:21.213Z,777
2022-10-26T10:53:04.950Z,777
2022-10-26T10:54:48.626Z,777
2022-10-26T10:56:32.317Z,777
2022-10-26T10:58:16.008Z,777
2022-10-26T10:59:59.791Z,778
2022-10-26T11:01:43.500Z,778
2022-10-26T11:03:27.159Z,775
2022-10-26T11:05:10.907Z,777
2022-10-26T11:06:54.558Z,777
2022-10-26T11:08:38.244Z,777
2022-10-26T11:10:21.941Z,777
2022-10-26T11:12:05.735Z,777
2022-10-26T11:13:49.356Z,777
2022-10-26T11:15:33.053Z,777
2022-10-26T11:17:16.743Z,777
2022-10-26T11:19:00.444Z,777
2022-10-26T11:20:44.234Z,777
2022-10-26T11:22:27.907Z,777
2022-10-26T11:24:11.571Z,777
2022-10-26T11:25:55.288Z,777
2022-10-26T11:27:38.959Z,777
2022-10-26T11:29:22.682Z,778
2022-10-26T11:31:06.427Z,778
2022-10-26T11:32:50.123Z,777
2022-10-26T11:34:33.855Z,776
2022-10-26T11:36:17.464Z,777
2022-10-26T11:38:01.178Z,777
2022-10-26T11:39:44.938Z,777
2022-10-26T11:41:28.637Z,778
2022-10-26T11:43:12.302Z,777
2022-10-26T11:44:55.969Z,778
2022-10-26T11:46:39.673Z,778
2022-10-26T11:48:23.386Z,777
2022-10-26T11:50:07.129Z,777
2022-10-26T11:51:50.831Z,778
2022-10-26T11:53:34.521Z,777
2022-10-26T11:55:18.253Z,778
2022-10-26T11:57:01.923Z,775
2022-10-26T11:58:45.597Z,778
2022-10-26T12:00:29.352Z,778
2022-10-26T12:02:13.059Z,778
2022-10-26T12:03:56.728Z,777
2022-10-26T12:05:40.407Z,778
2022-10-26T12:07:24.117Z,778
2022-10-26T12:09:07.863Z,778
2022-10-26T12:10:51.548Z,777
2022-10-26T12:12:35.233Z,777
2022-10-26T12:14:18.955Z,778
2022-10-26T12:16:02.713Z,778
2022-10-26T12:17:46.387Z,778
2022-10-26T12:19:30.085Z,778
2022-10-26T12:21:13.755Z,777
2022-10-26T12:22:57.456Z,778
2022-10-26T12:24:41.155Z,777
2022-10-26T12:26:24.860Z,778
2022-10-26T12:28:08.591Z,778
2022-10-26T12:29:52.306Z,777
2022-10-26T12:31:35.978Z,778
2022-10-26T12:33:19.655Z,778
2022-10-26T12:35:03.394Z,778
2022-10-26T12:36:47.116Z,776
2022-10-26T12:38:30.817Z,777
2022-10-26T12:40:14.477Z,777
2022-10-26T12:41:58.206Z,778
2022-10-26T12:43:41.880Z,777
2022-10-26T12:45:25.573Z,778
2022-10-26T12:47:09.364Z,777
2022-10-26T12:48:53.033Z,778
2022-10-26T12:50:36.679Z,778
2022-10-26T12:52:20.399Z,778
2022-10-26T12:54:04.105Z,777
2022-10-26T12:55:47.959Z,777
2022-10-26T12:57:31.547Z,778
2022-10-26T12:59:15.285Z,777
2022-10-26T13:00:58.914Z,778
2022-10-26T13:02:42.620Z,777
2022-10-26T13:04:26.305Z,777
2022-10-26T13:06:10.053Z,777
2022-10-26T13:07:53.731Z,777
2022-10-26T13:09:37.424Z,777
2022-10-26T13:11:21.121Z,777
2022-10-26T13:13:04.815Z,777
2022-10-26T13:14:48.581Z,778
2022-10-26T13:16:32.259Z,777
2022-10-26T13:18:15.961Z,777
2022-10-26T13:19:59.633Z,777
2022-10-26T13:21:43.335Z,777
2022-10-26T13:23:27.111Z,777
2022-10-26T13:25:10.815Z,778
2022-10-26T13:26:54.463Z,778
2022-10-26T13:28:38.157Z,778
2022-10-26T13:30:21.852Z,777
2022-10-26T13:32:05.551Z,777
2022-10-26T13:33:49.232Z,777
2022-10-26T13:35:32.993Z,777
2022-10-26T13:37:16.677Z,777
2022-10-26T13:39:00.347Z,777
2022-10-26T13:40:44.058Z,777
2022-10-26T13:42:27.865Z,777
2022-10-26T13:44:11.518Z,777
2022-10-26T13:45:55.192Z,778
2022-10-26T13:47:38.928Z,777
2022-10-26T13:49:22.571Z,778
2022-10-26T13:51:06.382Z,777
2022-10-26T13:52:49.963Z,778
2022-10-26T13:54:33.754Z,778
2022-10-26T13:56:17.419Z,777
2022-10-26T13:58:01.103Z,777
2022-10-26T13:59:44.814Z,777
2022-10-26T14:01:28.521Z,777
2022-10-26T14:03:12.235Z,777
2022-10-26T14:04:55.939Z,777
2022-10-26T14:06:39.613Z,718
2022-10-26T14:08:23.326Z,700
2022-10-26T14:10:06.998Z,604
2022-10-26T14:11:50.768Z,620
2022-10-26T14:13:34.487Z,413
2022-10-26T14:15:18.133Z,346
2022-10-26T14:17:01.823Z,361
2022-10-26T14:18:45.510Z,368
2022-10-26T14:20:29.205Z,362
2022-10-26T14:22:12.989Z,690
2022-10-26T14:23:56.647Z,392
2022-10-26T14:25:40.326Z,410
2022-10-26T14:27:24.033Z,429
2022-10-26T14:29:07.729Z,432
2022-10-26T14:30:51.490Z,436
2022-10-26T14:32:35.174Z,554
2022-10-26T14:34:18.952Z,344
2022-10-26T14:36:02.560Z,329
2022-10-26T14:37:46.515Z,509
2022-10-26T14:39:29.962Z,413
2022-10-26T14:41:13.754Z,345
2022-10-26T14:42:57.374Z,571
2022-10-26T14:44:41.078Z,553
2022-10-26T14:46:24.764Z,334
2022-10-26T14:48:08.487Z,296
2022-10-26T14:49:52.220Z,287
2022-10-26T14:51:35.945Z,276
2022-10-26T14:53:19.636Z,264
2022-10-26T14:55:03.266Z,263
2022-10-26T14:56:46.978Z,271
2022-10-26T14:58:30.751Z,286
2022-10-26T15:00:14.430Z,280
2022-10-26T15:01:58.193Z,273
2022-10-26T15:03:41.795Z,259
2022-10-26T15:05:25.522Z,238
2022-10-26T15:07:09.200Z,228
2022-10-26T15:08:52.982Z,224
2022-10-26T15:10:36.639Z,241
2022-10-26T15:12:20.353Z,250
2022-10-26T15:14:04.027Z,246
2022-10-26T15:15:47.702Z,265
2022-10-26T15:17:31.407Z,259
2022-10-26T15:19:15.188Z,265
2022-10-26T15:20:58.894Z,275
2022-10-26T15:22:42.515Z,295
2022-10-26T15:24:26.282Z,359
2022-10-26T15:26:09.932Z,358
2022-10-26T15:27:53.723Z,330
2022-10-26T15:29:37.368Z,434
2022-10-26T15:31:21.055Z,338
2022-10-26T15:33:04.742Z,293
2022-10-26T15:34:48.436Z,253
2022-10-26T15:36:32.132Z,233
2022-10-26T15:38:15.946Z,216
2022-10-26T15:39:59.562Z,222
2022-10-26T15:41:43.321Z,252
2022-10-26T15:43:26.935Z,253
2022-10-26T15:45:10.658Z,205
2022-10-26T15:46:54.335Z,161
2022-10-26T15:48:38.130Z,150
2022-10-26T15:50:21.767Z,133
2022-10-26T15:52:05.474Z,117
2022-10-26T15:53:49.149Z,106
2022-10-26T15:55:32.900Z,94
2022-10-26T15:57:16.547Z,81
2022-10-26T15:59:00.292Z,71
2022-10-26T16:00:43.974Z,65
2022-10-26T16:02:27.659Z,60
2022-10-26T16:04:11.368Z,55
2022-10-26T16:05:55.072Z,50
2022-10-26T16:07:38.815Z,45
2022-10-26T16:09:22.512Z,41
2022-10-26T16:11:06.226Z,34
2022-10-26T16:12:49.888Z,31
2022-10-26T16:14:33.669Z,29
2022-10-26T16:16:17.342Z,27
2022-10-26T16:18:01.025Z,25
2022-10-26T16:19:44.704Z,22
2022-10-26T16:21:28.384Z,19
2022-10-26T16:23:12.084Z,16
2022-10-26T16:24:55.795Z,12
2022-10-26T16:26:39.547Z,9
2022-10-26T16:28:23.281Z,5
2022-10-26T16:30:06.906Z,5
2022-10-26T16:31:50.601Z,3
2022-10-26T16:33:34.305Z,2
2022-10-26T16:35:18.099Z,2
2022-10-26T16:37:01.750Z,2
2022-10-26T16:38:45.453Z,1
2022-10-26T16:40:29.126Z,1
2022-10-26T16:42:12.822Z,2
2022-10-26T16:43:56.533Z,1
2022-10-26T16:45:40.279Z,1
2022-10-26T16:47:23.957Z,47
2022-10-26T16:49:07.709Z,46
2022-10-26T16:50:51.340Z,47
2022-10-26T16:52:35.011Z,1
2022-10-26T16:54:18.746Z,0
2022-10-26T16:56:02.481Z,1
2022-10-26T16:57:46.254Z,1
2022-10-26T16:59:29.849Z,1
2022-10-26T17:01:13.531Z,1
2022-10-26T17:02:57.240Z,1
2022-10-26T17:04:41.037Z,0
2022-10-26T17:06:24.710Z,1
2022-10-26T17:08:08.414Z,1
2022-10-26T17:09:52.050Z,1
2022-10-26T17:11:35.827Z,0
2022-10-26T17:13:19.523Z,1
2022-10-26T17:15:03.139Z,1
2022-10-26T17:16:46.887Z,1
2022-10-26T17:18:30.575Z,1
2022-10-26T17:20:14.256Z,1
2022-10-26T17:21:58.134Z,1
2022-10-26T17:23:41.817Z,1
2022-10-26T17:25:25.544Z,2
2022-10-26T17:27:09.149Z,1
2022-10-26T17:28:52.929Z,2
2022-10-26T17:30:36.487Z,1
2022-10-26T17:32:20.307Z,0
2022-10-26T17:34:03.888Z,1
2022-10-26T17:35:47.705Z,1
2022-10-26T17:37:31.422Z,655
2022-10-26T17:39:15.108Z,643
2022-10-26T17:40:58.662Z,640
2022-10-26T17:42:42.485Z,641
2022-10-26T17:44:26.200Z,637
2022-10-26T17:46:09.881Z,642
2022-10-26T17:47:53.633Z,639
2022-10-26T17:49:37.193Z,640
2022-10-26T17:51:21.000Z,638
2022-10-26T17:53:04.653Z,640
2022-10-26T17:54:48.435Z,638
2022-10-26T17:56:32.134Z,639
2022-10-26T17:58:15.824Z,642
2022-10-26T17:59:59.517Z,632
2022-10-26T18:01:43.068Z,635
2022-10-26T18:03:26.929Z,636
2022-10-26T18:05:10.626Z,637
2022-10-26T18:06:54.391Z,638
2022-10-26T18:08:37.911Z,638
2022-10-26T18:10:21.764Z,635
2022-10-26T18:12:05.416Z,638
2022-10-26T18:13:49.158Z,635
2022-10-26T18:15:32.732Z,546
2022-10-26T18:17:16.534Z,565
2022-10-26T18:19:00.270Z,493
2022-10-26T18:20:43.894Z,421
2022-10-26T18:22:27.496Z,473
2022-10-26T18:24:11.186Z,659
2022-10-26T18:25:55.003Z,451
2022-10-26T18:27:38.728Z,753
2022-10-26T18:29:22.328Z,617
2022-10-26T18:31:06.012Z,453
2022-10-26T18:32:49.694Z,777
2022-10-26T18:34:33.462Z,774
2022-10-26T18:36:17.231Z,775
2022-10-26T18:38:00.899Z,776
2022-10-26T18:39:44.527Z,776
2022-10-26T18:41:28.377Z,774
2022-10-26T18:43:12.056Z,776
2022-10-26T18:44:55.652Z,775
2022-10-26T18:46:39.369Z,776
2022-10-26T18:48:23.137Z,775
2022-10-26T18:50:06.811Z,776
2022-10-26T18:51:50.549Z,776
2022-10-26T18:53:34.128Z,776
2022-10-26T18:55:17.889Z,776
2022-10-26T18:57:01.711Z,776
2022-10-26T18:58:45.400Z,776
2022-10-26T19:00:29.035Z,776
2022-10-26T19:02:12.757Z,776
2022-10-26T19:03:57.050Z,776
2022-10-26T19:05:40.225Z,776
2022-10-26T19:07:23.889Z,775
2022-10-26T19:09:07.621Z,776
2022-10-26T19:10:51.153Z,776
2022-10-26T19:12:34.984Z,775
2022-10-26T19:14:18.571Z,776
2022-10-26T19:16:02.460Z,776
2022-10-26T19:17:46.069Z,776
2022-10-26T19:19:29.664Z,775
2022-10-26T19:21:13.377Z,776
2022-10-26T19:22:57.075Z,776
2022-10-26T19:24:40.786Z,775
2022-10-26T19:26:24.507Z,775
2022-10-26T19:28:08.199Z,776
2022-10-26T19:29:51.912Z,776
2022-10-26T19:31:35.592Z,775
2022-10-26T19:33:19.353Z,776
2022-10-26T19:35:03.033Z,779
2022-10-26T19:36:46.721Z,775
2022-10-26T19:38:30.391Z,775
2022-10-26T19:40:14.099Z,776
2022-10-26T19:41:57.797Z,776
2022-10-26T19:43:41.495Z,3
2022-10-26T19:45:25.247Z,3
2022-10-26T19:47:08.917Z,4
2022-10-26T19:48:52.607Z,3
2022-10-26T19:50:36.310Z,3
2022-10-26T19:52:20.034Z,3
2022-10-26T19:54:03.762Z,3
2022-10-26T19:55:47.445Z,3
2022-10-26T19:57:31.134Z,3
2022-10-26T19:59:14.812Z,3
2022-10-26T20:00:58.512Z,3
2022-10-26T20:02:42.224Z,2
2022-10-26T20:04:25.974Z,3
2022-10-26T20:06:09.650Z,3
2022-10-26T20:07:53.336Z,3
2022-10-26T20:09:37.020Z,3
2022-10-26T20:11:20.717Z,3
2022-10-26T20:13:04.423Z,3
2022-10-26T20:14:48.182Z,3
2022-10-26T20:16:31.857Z,3
2022-10-26T20:18:15.533Z,3
2022-10-26T20:19:59.214Z,4
2022-10-26T20:21:42.933Z,3
2022-10-26T20:23:26.657Z,3
2022-10-26T20:25:10.379Z,3
2022-10-26T20:26:54.062Z,3
2022-10-26T20:28:37.746Z,3
2022-10-26T20:30:21.455Z,4
2022-10-26T20:32:05.401Z,3
2022-10-26T20:33:48.909Z,2
2022-10-26T20:35:32.638Z,3
2022-10-26T20:37:16.273Z,3
2022-10-26T20:38:59.981Z,3
2022-10-26T20:40:43.661Z,4
2022-10-26T20:42:27.364Z,3
2022-10-26T20:44:11.110Z,3
2022-10-26T20:45:54.792Z,3
2022-10-26T20:47:38.479Z,3
2022-10-26T20:49:22.154Z,3
2022-10-26T20:51:05.875Z,2
2022-10-26T20:52:49.562Z,3
2022-10-26T20:54:33.249Z,3
2022-10-26T20:56:16.994Z,3
2022-10-26T20:58:00.674Z,3
2022-10-26T20:59:44.367Z,3
2022-10-26T21:01:28.062Z,2
2022-10-26T21:03:11.775Z,3
2022-10-26T21:04:55.517Z,3
2022-10-26T21:06:39.233Z,3
2022-10-26T21:08:22.883Z,3
2022-10-26T21:10:06.566Z,3
2022-10-26T21:11:50.280Z,3
2022-10-26T21:13:33.963Z,2
2022-10-26T21:15:17.723Z,3
2022-10-26T21:17:01.404Z,3
2022-10-26T21:18:45.086Z,3
2022-10-26T21:20:28.763Z,2
2022-10-26T21:22:12.477Z,3
2022-10-26T21:23:56.248Z,3
2022-10-26T21:25:39.929Z,3
2022-10-26T21:27:23.615Z,3
2022-10-26T21:29:07.292Z,3
2022-10-26T21:30:50.996Z,3
2022-10-26T21:32:34.698Z,3
2022-10-26T21:34:18.382Z,3
2022-10-26T21:36:02.133Z,4
2022-10-26T21:37:45.830Z,3
2022-10-26T21:39:29.506Z,3
2022-10-26T21:41:13.200Z,3
2022-10-26T21:42:56.901Z,3
2022-10-26T21:44:40.663Z,4
2022-10-26T21:46:24.341Z,3
2022-10-26T21:48:08.016Z,3
2022-10-26T21:49:51.714Z,3
2022-10-26T21:51:35.431Z,3
2022-10-26T21:53:19.182Z,3
2022-10-26T21:55:02.886Z,2
2022-10-26T21:56:46.544Z,4
2022-10-26T21:58:30.225Z,2
2022-10-26T22:00:13.928Z,2
2022-10-26T22:01:57.709Z,3
2022-10-26T22:03:41.387Z,3
2022-10-26T22:05:25.063Z,3
2022-10-26T22:07:08.766Z,3
2022-10-26T22:08:52.457Z,3
2022-10-26T22:10:36.146Z,3
2022-10-26T22:12:19.910Z,4
2022-10-26T22:14:03.592Z,3
2022-10-26T22:15:47.276Z,3
2022-10-26T22:17:30.960Z,3
2022-10-26T22:19:14.671Z,2
2022-10-26T22:20:58.368Z,3
2022-10-26T22:22:42.116Z,3
2022-10-26T22:24:25.815Z,2
2022-10-26T22:26:09.737Z,3
2022-10-26T22:27:53.169Z,3
2022-10-26T22:29:36.871Z,2
2022-10-26T22:31:20.558Z,3
2022-10-26T22:33:04.337Z,3
2022-10-26T22:34:48.004Z,3
2022-10-26T22:36:31.690Z,82
2022-10-26T22:38:15.378Z,83
2022-10-26T22:39:59.083Z,2
2022-10-26T22:41:42.839Z,2
2022-10-26T22:43:26.524Z,1
2022-10-26T22:45:10.203Z,2
2022-10-26T22:46:53.883Z,1
2022-10-26T22:48:37.574Z,1
2022-10-26T22:50:21.289Z,2
2022-10-26T22:52:04.987Z,1
2022-10-26T22:53:48.735Z,1
2022-10-26T22:55:32.409Z,1
2022-10-26T22:57:16.111Z,1
2022-10-26T22:58:59.792Z,1
2022-10-26T23:00:43.480Z,1
2022-10-26T23:02:27.182Z,1
2022-10-26T23:04:10.933Z,1
2022-10-26T23:05:54.630Z,1
2022-10-26T23:07:38.294Z,1
2022-10-26T23:09:22.017Z,1
2022-10-26T23:11:05.703Z,2
2022-10-26T23:12:49.459Z,1
2022-10-26T23:14:33.133Z,1
2022-10-26T23:16:16.821Z,2
2022-10-26T23:18:00.516Z,2
2022-10-26T23:19:44.210Z,1
2022-10-26T23:21:27.921Z,1
2022-10-26T23:23:11.663Z,0
2022-10-26T23:24:55.341Z,1
2022-10-26T23:26:39.030Z,1
2022-10-26T23:28:22.732Z,2
2022-10-26T23:30:06.441Z,1
2022-10-26T23:31:50.187Z,1
2022-10-26T23:33:33.869Z,1
2022-10-26T23:35:17.559Z,2
2022-10-26T23:37:01.237Z,1
2022-10-26T23:38:44.945Z,1
2022-10-26T23:40:28.636Z,1
2022-10-26T23:42:12.391Z,1
2022-10-26T23:43:56.068Z,0
2022-10-26T23:45:39.787Z,2
2022-10-26T23:47:23.443Z,1
2022-10-26T23:49:07.158Z,1
2022-10-26T23:50:50.848Z,1
2022-10-26T23:52:34.600Z,1
2022-10-26T23:54:18.280Z,1
2022-10-26T23:56:01.954Z,1
2022-10-26T23:57:45.662Z,0
2022-10-26T23:59:29.352Z,1
